sensor_id;sensor_type;location;lat;lon;timestamp;temperature;humidity
9820;DHT22;4949;48.482;9.206;2023-03-22T00:02:41;13.10;57.00
9820;DHT22;4949;48.482;9.206;2023-03-22T00:07:44;13.10;57.00
9820;DHT22;4949;48.482;9.206;2023-03-22T00:12:45;13.10;57.30
9820;DHT22;4949;48.482;9.206;2023-03-22T00:17:48;13.10;57.30
9820;DHT22;4949;48.482;9.206;2023-03-22T00:22:54;13.00;57.70
9820;DHT22;4949;48.482;9.206;2023-03-22T00:27:56;13.00;58.30
9820;DHT22;4949;48.482;9.206;2023-03-22T00:32:56;13.20;58.90
9820;DHT22;4949;48.482;9.206;2023-03-22T00:37:59;13.00;59.00
9820;DHT22;4949;48.482;9.206;2023-03-22T00:43:05;12.80;59.20
9820;DHT22;4949;48.482;9.206;2023-03-22T00:48:07;12.70;59.90
9820;DHT22;4949;48.482;9.206;2023-03-22T00:53:09;12.60;60.10
9820;DHT22;4949;48.482;9.206;2023-03-22T00:58:10;12.60;60.10
9820;DHT22;4949;48.482;9.206;2023-03-22T01:03:11;12.40;60.60
9820;DHT22;4949;48.482;9.206;2023-03-22T01:08:13;12.40;60.60
9820;DHT22;4949;48.482;9.206;2023-03-22T01:13:15;12.30;61.10
9820;DHT22;4949;48.482;9.206;2023-03-22T01:18:18;12.10;61.60
9820;DHT22;4949;48.482;9.206;2023-03-22T01:23:19;12.00;62.20
9820;DHT22;4949;48.482;9.206;2023-03-22T01:28:22;12.20;61.90
9820;DHT22;4949;48.482;9.206;2023-03-22T01:33:23;11.90;62.20
9820;DHT22;4949;48.482;9.206;2023-03-22T01:38:24;11.90;62.50
9820;DHT22;4949;48.482;9.206;2023-03-22T01:43:27;11.70;62.70
9820;DHT22;4949;48.482;9.206;2023-03-22T01:48:36;11.60;63.30
9820;DHT22;4949;48.482;9.206;2023-03-22T01:53:50;11.50;63.50
9820;DHT22;4949;48.482;9.206;2023-03-22T01:58:53;11.40;63.50
9820;DHT22;4949;48.482;9.206;2023-03-22T02:03:56;11.30;64.00
9820;DHT22;4949;48.482;9.206;2023-03-22T02:09:01;11.20;64.30
9820;DHT22;4949;48.482;9.206;2023-03-22T02:36:23;10.70;65.30
9820;DHT22;4949;48.482;9.206;2023-03-22T02:47:57;10.50;66.20
9820;DHT22;4949;48.482;9.206;2023-03-22T02:52:43;10.40;66.60
9820;DHT22;4949;48.482;9.206;2023-03-22T02:57:56;10.20;66.70
9820;DHT22;4949;48.482;9.206;2023-03-22T03:03:12;10.20;67.30
9820;DHT22;4949;48.482;9.206;2023-03-22T03:08:18;10.10;67.70
9820;DHT22;4949;48.482;9.206;2023-03-22T03:13:20;10.00;67.90
9820;DHT22;4949;48.482;9.206;2023-03-22T03:18:37;9.90;68.90
9820;DHT22;4949;48.482;9.206;2023-03-22T03:29:34;9.70;69.80
9820;DHT22;4949;48.482;9.206;2023-03-22T03:34:58;9.60;70.10
9820;DHT22;4949;48.482;9.206;2023-03-22T03:45:14;9.40;70.50
9820;DHT22;4949;48.482;9.206;2023-03-22T03:50:16;9.30;71.10
9820;DHT22;4949;48.482;9.206;2023-03-22T03:55:18;9.20;70.90
9820;DHT22;4949;48.482;9.206;2023-03-22T04:00:19;9.10;71.00
9820;DHT22;4949;48.482;9.206;2023-03-22T04:05:20;9.00;71.40
9820;DHT22;4949;48.482;9.206;2023-03-22T04:10:21;9.00;71.40
9820;DHT22;4949;48.482;9.206;2023-03-22T04:15:22;9.00;71.60
9820;DHT22;4949;48.482;9.206;2023-03-22T04:20:23;9.00;71.70
9820;DHT22;4949;48.482;9.206;2023-03-22T04:25:29;8.80;72.10
9820;DHT22;4949;48.482;9.206;2023-03-22T04:30:30;8.80;71.90
9820;DHT22;4949;48.482;9.206;2023-03-22T04:35:35;8.90;72.30
9820;DHT22;4949;48.482;9.206;2023-03-22T04:40:36;8.60;72.90
9820;DHT22;4949;48.482;9.206;2023-03-22T04:45:38;8.40;73.10
9820;DHT22;4949;48.482;9.206;2023-03-22T04:50:39;8.40;73.00
9820;DHT22;4949;48.482;9.206;2023-03-22T04:55:42;8.40;73.30
9820;DHT22;4949;48.482;9.206;2023-03-22T05:00:42;8.40;73.30
9820;DHT22;4949;48.482;9.206;2023-03-22T05:05:54;8.40;73.20
9820;DHT22;4949;48.482;9.206;2023-03-22T05:10:57;8.40;73.30
9820;DHT22;4949;48.482;9.206;2023-03-22T05:16:02;8.50;73.10
9820;DHT22;4949;48.482;9.206;2023-03-22T05:21:11;8.60;72.90
9820;DHT22;4949;48.482;9.206;2023-03-22T05:26:15;8.70;71.90
9820;DHT22;4949;48.482;9.206;2023-03-22T05:31:16;8.90;71.40
9820;DHT22;4949;48.482;9.206;2023-03-22T05:36:19;9.00;70.60
9820;DHT22;4949;48.482;9.206;2023-03-22T05:41:22;9.00;70.30
9820;DHT22;4949;48.482;9.206;2023-03-22T05:46:25;9.10;69.20
9820;DHT22;4949;48.482;9.206;2023-03-22T05:51:25;9.10;68.60
9820;DHT22;4949;48.482;9.206;2023-03-22T05:56:26;9.20;67.30
9820;DHT22;4949;48.482;9.206;2023-03-22T06:01:27;9.30;65.80
9820;DHT22;4949;48.482;9.206;2023-03-22T06:06:32;9.30;64.90
9820;DHT22;4949;48.482;9.206;2023-03-22T06:11:35;9.40;64.70
9820;DHT22;4949;48.482;9.206;2023-03-22T06:16:36;9.50;63.60
9820;DHT22;4949;48.482;9.206;2023-03-22T06:21:37;9.50;63.90
9820;DHT22;4949;48.482;9.206;2023-03-22T06:26:42;9.40;66.20
9820;DHT22;4949;48.482;9.206;2023-03-22T06:31:43;9.50;67.50
9820;DHT22;4949;48.482;9.206;2023-03-22T06:36:47;9.50;67.50
9820;DHT22;4949;48.482;9.206;2023-03-22T06:41:48;9.50;66.60
9820;DHT22;4949;48.482;9.206;2023-03-22T06:46:51;9.50;66.40
9820;DHT22;4949;48.482;9.206;2023-03-22T06:51:54;9.90;70.30
9820;DHT22;4949;48.482;9.206;2023-03-22T06:56:55;10.30;66.50
9820;DHT22;4949;48.482;9.206;2023-03-22T07:01:55;10.50;63.20
9820;DHT22;4949;48.482;9.206;2023-03-22T07:06:59;10.30;64.60
9820;DHT22;4949;48.482;9.206;2023-03-22T07:12:00;10.10;66.40
9820;DHT22;4949;48.482;9.206;2023-03-22T07:17:00;9.90;68.00
9820;DHT22;4949;48.482;9.206;2023-03-22T07:22:01;9.80;68.30
9820;DHT22;4949;48.482;9.206;2023-03-22T07:27:02;9.80;67.80
9820;DHT22;4949;48.482;9.206;2023-03-22T07:32:03;9.90;67.10
9820;DHT22;4949;48.482;9.206;2023-03-22T07:37:06;9.90;66.80
9820;DHT22;4949;48.482;9.206;2023-03-22T07:42:07;9.90;67.40
9820;DHT22;4949;48.482;9.206;2023-03-22T07:47:08;10.00;66.50
9820;DHT22;4949;48.482;9.206;2023-03-22T07:52:09;10.10;66.30
9820;DHT22;4949;48.482;9.206;2023-03-22T07:57:10;10.20;66.80
9820;DHT22;4949;48.482;9.206;2023-03-22T08:02:14;10.30;67.00
9820;DHT22;4949;48.482;9.206;2023-03-22T08:07:17;10.40;66.60
9820;DHT22;4949;48.482;9.206;2023-03-22T08:12:18;10.50;66.30
9820;DHT22;4949;48.482;9.206;2023-03-22T08:17:19;10.50;65.90
9820;DHT22;4949;48.482;9.206;2023-03-22T08:22:19;10.70;65.90
9820;DHT22;4949;48.482;9.206;2023-03-22T08:27:24;10.90;65.40
9820;DHT22;4949;48.482;9.206;2023-03-22T08:32:25;11.00;65.10
9820;DHT22;4949;48.482;9.206;2023-03-22T08:37:28;11.20;64.30
9820;DHT22;4949;48.482;9.206;2023-03-22T08:42:29;11.30;64.60
9820;DHT22;4949;48.482;9.206;2023-03-22T08:47:30;11.40;63.60
9820;DHT22;4949;48.482;9.206;2023-03-22T08:52:31;11.70;63.20
9820;DHT22;4949;48.482;9.206;2023-03-22T08:57:35;11.90;61.70
9820;DHT22;4949;48.482;9.206;2023-03-22T09:02:36;12.30;60.90
9820;DHT22;4949;48.482;9.206;2023-03-22T09:07:36;12.40;61.00
9820;DHT22;4949;48.482;9.206;2023-03-22T09:12:37;12.60;60.90
9820;DHT22;4949;48.482;9.206;2023-03-22T09:17:38;12.80;59.70
9820;DHT22;4949;48.482;9.206;2023-03-22T09:22:39;13.20;58.50
9820;DHT22;4949;48.482;9.206;2023-03-22T09:27:40;13.20;57.60
9820;DHT22;4949;48.482;9.206;2023-03-22T09:32:40;13.30;57.10
9820;DHT22;4949;48.482;9.206;2023-03-22T09:37:41;13.50;56.70
9820;DHT22;4949;48.482;9.206;2023-03-22T09:42:45;13.60;55.80
9820;DHT22;4949;48.482;9.206;2023-03-22T09:47:51;13.80;55.10
9820;DHT22;4949;48.482;9.206;2023-03-22T09:52:56;13.90;54.50
9820;DHT22;4949;48.482;9.206;2023-03-22T10:09:42;14.40;53.30
9820;DHT22;4949;48.482;9.206;2023-03-22T10:15:20;14.70;51.60
9820;DHT22;4949;48.482;9.206;2023-03-22T10:25:54;15.00;50.80
9820;DHT22;4949;48.482;9.206;2023-03-22T10:30:58;15.30;50.00
9820;DHT22;4949;48.482;9.206;2023-03-22T10:36:00;15.50;48.40
9820;DHT22;4949;48.482;9.206;2023-03-22T10:41:05;15.70;48.30
9820;DHT22;4949;48.482;9.206;2023-03-22T10:46:13;15.90;48.60
9820;DHT22;4949;48.482;9.206;2023-03-22T10:51:40;16.00;48.20
9820;DHT22;4949;48.482;9.206;2023-03-22T10:56:45;16.20;48.00
9820;DHT22;4949;48.482;9.206;2023-03-22T11:01:50;16.60;46.70
9820;DHT22;4949;48.482;9.206;2023-03-22T11:06:52;16.90;44.90
9820;DHT22;4949;48.482;9.206;2023-03-22T11:11:58;17.00;44.10
9820;DHT22;4949;48.482;9.206;2023-03-22T11:22:24;18.10;42.70
9820;DHT22;4949;48.482;9.206;2023-03-22T11:27:32;18.20;43.00
9820;DHT22;4949;48.482;9.206;2023-03-22T11:32:40;18.50;42.00
9820;DHT22;4949;48.482;9.206;2023-03-22T11:37:52;18.70;41.70
9820;DHT22;4949;48.482;9.206;2023-03-22T11:43:00;18.70;41.20
9820;DHT22;4949;48.482;9.206;2023-03-22T11:48:18;18.80;41.00
9820;DHT22;4949;48.482;9.206;2023-03-22T11:53:24;19.40;40.90
9820;DHT22;4949;48.482;9.206;2023-03-22T11:58:52;19.60;40.40
9820;DHT22;4949;48.482;9.206;2023-03-22T12:04:06;20.10;40.20
9820;DHT22;4949;48.482;9.206;2023-03-22T12:14:48;19.90;40.00
9820;DHT22;4949;48.482;9.206;2023-03-22T12:20:04;19.60;40.30
9820;DHT22;4949;48.482;9.206;2023-03-22T12:25:17;19.40;40.50
9820;DHT22;4949;48.482;9.206;2023-03-22T12:30:25;19.40;40.20
9820;DHT22;4949;48.482;9.206;2023-03-22T12:35:34;19.50;40.00
9820;DHT22;4949;48.482;9.206;2023-03-22T12:40:41;19.80;38.90
9820;DHT22;4949;48.482;9.206;2023-03-22T12:45:49;20.10;38.20
9820;DHT22;4949;48.482;9.206;2023-03-22T12:51:03;20.30;36.80
9820;DHT22;4949;48.482;9.206;2023-03-22T12:56:11;20.50;35.90
9820;DHT22;4949;48.482;9.206;2023-03-22T13:01:34;20.70;35.20
9820;DHT22;4949;48.482;9.206;2023-03-22T13:11:45;21.10;33.90
9820;DHT22;4949;48.482;9.206;2023-03-22T13:16:50;21.00;33.80
9820;DHT22;4949;48.482;9.206;2023-03-22T13:28:01;21.10;34.30
9820;DHT22;4949;48.482;9.206;2023-03-22T13:43:46;21.10;34.20
9820;DHT22;4949;48.482;9.206;2023-03-22T13:48:56;21.10;32.70
9820;DHT22;4949;48.482;9.206;2023-03-22T13:54:19;21.50;32.80
9820;DHT22;4949;48.482;9.206;2023-03-22T14:04:48;21.40;32.50
9820;DHT22;4949;48.482;9.206;2023-03-22T14:10:21;21.20;33.10
9820;DHT22;4949;48.482;9.206;2023-03-22T14:15:36;21.20;33.00
9820;DHT22;4949;48.482;9.206;2023-03-22T14:20:39;21.30;33.00
9820;DHT22;4949;48.482;9.206;2023-03-22T14:25:40;21.40;33.10
9820;DHT22;4949;48.482;9.206;2023-03-22T14:30:42;21.30;32.60
9820;DHT22;4949;48.482;9.206;2023-03-22T14:35:59;21.40;32.50
9820;DHT22;4949;48.482;9.206;2023-03-22T14:41:20;21.20;32.70
9820;DHT22;4949;48.482;9.206;2023-03-22T14:46:30;21.00;33.20
9820;DHT22;4949;48.482;9.206;2023-03-22T14:51:38;21.00;33.10
9820;DHT22;4949;48.482;9.206;2023-03-22T14:56:41;21.10;33.40
9820;DHT22;4949;48.482;9.206;2023-03-22T15:01:55;21.30;32.30
9820;DHT22;4949;48.482;9.206;2023-03-22T15:07:08;21.20;31.70
9820;DHT22;4949;48.482;9.206;2023-03-22T15:12:12;21.00;32.70
9820;DHT22;4949;48.482;9.206;2023-03-22T15:17:15;21.10;33.10
9820;DHT22;4949;48.482;9.206;2023-03-22T15:22:20;21.40;32.80
9820;DHT22;4949;48.482;9.206;2023-03-22T15:27:23;21.50;32.60
9820;DHT22;4949;48.482;9.206;2023-03-22T15:32:26;21.40;31.80
9820;DHT22;4949;48.482;9.206;2023-03-22T15:37:34;21.20;31.80
9820;DHT22;4949;48.482;9.206;2023-03-22T15:42:38;21.10;32.70
9820;DHT22;4949;48.482;9.206;2023-03-22T15:52:56;20.90;33.00
9820;DHT22;4949;48.482;9.206;2023-03-22T15:57:59;21.10;33.10
9820;DHT22;4949;48.482;9.206;2023-03-22T16:08:10;21.20;33.70
9820;DHT22;4949;48.482;9.206;2023-03-22T16:13:23;21.00;33.90
9820;DHT22;4949;48.482;9.206;2023-03-22T16:18:27;20.90;34.40
9820;DHT22;4949;48.482;9.206;2023-03-22T16:23:27;21.00;33.90
9820;DHT22;4949;48.482;9.206;2023-03-22T16:28:29;20.80;35.00
9820;DHT22;4949;48.482;9.206;2023-03-22T16:33:30;20.70;35.40
9820;DHT22;4949;48.482;9.206;2023-03-22T16:38:33;20.60;35.80
9820;DHT22;4949;48.482;9.206;2023-03-22T16:43:36;20.40;36.30
9820;DHT22;4949;48.482;9.206;2023-03-22T16:48:39;20.20;36.80
9820;DHT22;4949;48.482;9.206;2023-03-22T16:53:40;19.80;37.00
9820;DHT22;4949;48.482;9.206;2023-03-22T16:58:44;19.70;37.30
9820;DHT22;4949;48.482;9.206;2023-03-22T17:03:52;19.60;36.90
9820;DHT22;4949;48.482;9.206;2023-03-22T17:08:53;19.50;36.70
9820;DHT22;4949;48.482;9.206;2023-03-22T17:13:55;19.40;36.70
9820;DHT22;4949;48.482;9.206;2023-03-22T17:19:03;19.50;36.50
9820;DHT22;4949;48.482;9.206;2023-03-22T17:24:04;19.50;36.50
9820;DHT22;4949;48.482;9.206;2023-03-22T17:29:07;19.30;36.50
9820;DHT22;4949;48.482;9.206;2023-03-22T17:34:11;19.20;37.50
9820;DHT22;4949;48.482;9.206;2023-03-22T17:39:12;19.20;37.70
9820;DHT22;4949;48.482;9.206;2023-03-22T17:44:16;18.90;38.00
9820;DHT22;4949;48.482;9.206;2023-03-22T17:49:22;18.90;38.00
9820;DHT22;4949;48.482;9.206;2023-03-22T17:54:23;18.80;37.60
9820;DHT22;4949;48.482;9.206;2023-03-22T17:59:24;18.70;37.10
9820;DHT22;4949;48.482;9.206;2023-03-22T18:04:25;18.50;37.60
9820;DHT22;4949;48.482;9.206;2023-03-22T18:09:25;18.30;37.60
9820;DHT22;4949;48.482;9.206;2023-03-22T18:14:27;18.20;37.40
9820;DHT22;4949;48.482;9.206;2023-03-22T18:19:28;18.10;37.10
9820;DHT22;4949;48.482;9.206;2023-03-22T18:24:31;18.00;37.40
9820;DHT22;4949;48.482;9.206;2023-03-22T18:29:32;17.80;37.10
9820;DHT22;4949;48.482;9.206;2023-03-22T18:34:33;17.70;37.50
9820;DHT22;4949;48.482;9.206;2023-03-22T18:39:34;17.70;37.10
9820;DHT22;4949;48.482;9.206;2023-03-22T18:44:36;17.60;37.30
9820;DHT22;4949;48.482;9.206;2023-03-22T18:49:36;17.60;37.10
9820;DHT22;4949;48.482;9.206;2023-03-22T18:54:40;17.50;37.20
9820;DHT22;4949;48.482;9.206;2023-03-22T18:59:40;17.40;37.70
9820;DHT22;4949;48.482;9.206;2023-03-22T19:04:44;17.30;38.10
9820;DHT22;4949;48.482;9.206;2023-03-22T19:09:45;17.20;38.20
9820;DHT22;4949;48.482;9.206;2023-03-22T19:14:45;17.10;38.40
9820;DHT22;4949;48.482;9.206;2023-03-22T19:19:46;17.10;38.60
9820;DHT22;4949;48.482;9.206;2023-03-22T19:24:51;17.00;38.70
9820;DHT22;4949;48.482;9.206;2023-03-22T19:29:56;17.00;38.70
9820;DHT22;4949;48.482;9.206;2023-03-22T19:35:04;16.90;38.60
9820;DHT22;4949;48.482;9.206;2023-03-22T19:40:32;16.90;42.40
9820;DHT22;4949;48.482;9.206;2023-03-22T19:45:48;16.90;38.90
9820;DHT22;4949;48.482;9.206;2023-03-22T19:51:24;16.80;38.90
9820;DHT22;4949;48.482;9.206;2023-03-22T19:56:25;16.80;39.50
9820;DHT22;4949;48.482;9.206;2023-03-22T20:01:36;16.70;39.20
9820;DHT22;4949;48.482;9.206;2023-03-22T20:06:49;16.60;38.90
9820;DHT22;4949;48.482;9.206;2023-03-22T20:12:13;16.60;38.90
9820;DHT22;4949;48.482;9.206;2023-03-22T20:17:18;16.60;39.00
9820;DHT22;4949;48.482;9.206;2023-03-22T20:22:28;16.50;39.20
9820;DHT22;4949;48.482;9.206;2023-03-22T20:27:44;16.60;39.40
9820;DHT22;4949;48.482;9.206;2023-03-22T20:38:20;16.40;40.80
9820;DHT22;4949;48.482;9.206;2023-03-22T20:48:58;16.30;41.30
9820;DHT22;4949;48.482;9.206;2023-03-22T20:54:42;16.20;41.60
9820;DHT22;4949;48.482;9.206;2023-03-22T20:59:48;16.20;41.20
9820;DHT22;4949;48.482;9.206;2023-03-22T21:04:56;16.10;41.10
9820;DHT22;4949;48.482;9.206;2023-03-22T21:10:05;16.10;41.20
9820;DHT22;4949;48.482;9.206;2023-03-22T21:15:15;16.20;40.90
9820;DHT22;4949;48.482;9.206;2023-03-22T21:20:16;16.10;40.80
9820;DHT22;4949;48.482;9.206;2023-03-22T21:25:20;16.20;40.30
9820;DHT22;4949;48.482;9.206;2023-03-22T21:30:28;16.20;40.30
9820;DHT22;4949;48.482;9.206;2023-03-22T21:35:29;16.20;40.50
9820;DHT22;4949;48.482;9.206;2023-03-22T21:40:32;16.20;40.40
9820;DHT22;4949;48.482;9.206;2023-03-22T21:45:36;16.20;40.40
9820;DHT22;4949;48.482;9.206;2023-03-22T21:50:37;16.20;40.40
9820;DHT22;4949;48.482;9.206;2023-03-22T21:55:44;16.30;41.00
9820;DHT22;4949;48.482;9.206;2023-03-22T22:00:46;16.10;40.90
9820;DHT22;4949;48.482;9.206;2023-03-22T22:05:54;16.00;42.70
9820;DHT22;4949;48.482;9.206;2023-03-22T22:10:58;15.90;43.50
9820;DHT22;4949;48.482;9.206;2023-03-22T22:16:03;15.90;44.30
9820;DHT22;4949;48.482;9.206;2023-03-22T22:21:12;15.70;45.20
9820;DHT22;4949;48.482;9.206;2023-03-22T22:26:16;15.50;46.20
9820;DHT22;4949;48.482;9.206;2023-03-22T22:31:17;15.50;46.90
9820;DHT22;4949;48.482;9.206;2023-03-22T22:36:18;15.30;47.30
9820;DHT22;4949;48.482;9.206;2023-03-22T22:41:20;15.20;47.80
9820;DHT22;4949;48.482;9.206;2023-03-22T22:46:22;15.10;48.00
9820;DHT22;4949;48.482;9.206;2023-03-22T22:51:24;15.10;48.20
9820;DHT22;4949;48.482;9.206;2023-03-22T22:56:25;15.00;48.20
9820;DHT22;4949;48.482;9.206;2023-03-22T23:01:28;14.90;48.60
9820;DHT22;4949;48.482;9.206;2023-03-22T23:06:35;14.80;49.20
9820;DHT22;4949;48.482;9.206;2023-03-22T23:11:36;14.80;49.50
9820;DHT22;4949;48.482;9.206;2023-03-22T23:16:37;14.70;49.80
9820;DHT22;4949;48.482;9.206;2023-03-22T23:21:38;14.70;50.00
9820;DHT22;4949;48.482;9.206;2023-03-22T23:26:46;14.70;50.50
9820;DHT22;4949;48.482;9.206;2023-03-22T23:31:50;14.60;50.30
9820;DHT22;4949;48.482;9.206;2023-03-22T23:36:51;14.60;50.50
9820;DHT22;4949;48.482;9.206;2023-03-22T23:41:53;14.50;50.80
9820;DHT22;4949;48.482;9.206;2023-03-22T23:46:54;14.50;50.70
9820;DHT22;4949;48.482;9.206;2023-03-22T23:51:55;14.50;50.50
9820;DHT22;4949;48.482;9.206;2023-03-22T23:56:56;14.50;50.70
